Sunday, March 01, 2015
16:40 UTC
  |  Log In   |  Register Free
Airport Search:

Enid Woodring Regional Airport
(KWDG)

FAA data valid effective January 08, 2015 - March 05, 2015 (unless otherwise noted).

 
 
 
 
 
 
 
 
 
 
 
 
 
 

Current Aviation Weather for Enid Woodring Regional Airport (KWDG)

The most recent METAR observation for KWDG was updated at: 1617
METAR Summary (Translated METAR)
KWDG
011555Z 35008KT 05SM BR BKN007 BKN020 OVC025 M01/M03 A3040
KEND
011558Z AUTO M 10SM OVC007 M03/M04 A3038 RMK AO2 OVC V BKN SLPNO T10351043 VISNO RWY35C CHINO RWY35C $
(6.6 nm SW from KWDG)
KBKN
161915Z AUTO 19018G23KT 10SM CLR 16/M06 A3008 RMK AO2
(30.6 nm NE from KWDG)
TAF Summary (Translated TAF)
KEND
(6.6 nm SW from KWDG)
0116/0217 33005KT 9999 OVC007 620075 QNH3028INS TEMPO 0116/0118 OVC005 BECMG 0118/0119 VRB05KT 9999 SCT010 BKN080 QNH3037INS BECMG 0204/0205 VRB04KT 9999 BKN010 610101 QNH3041INS BECMG 0214/0215 08009KT 9999 BKN120 QNH3038INS TXM03/0121Z TNM03/0116Z AMD 011609
  Airport Weather Conditions for KWDG

 Current Weather at WDG
27° F
Fog/Mist
North winds at 5.8 mph
WDG NOAA Radar

Pressure: 30.37 in
Humidity: 100%
Wind: North at 5.8 MPH (5 KT)
Dew Point: 26.6°F
Visibility: 2.50 mi


Airport Weather Forecast for KWDG

Translated METAR and TAF for KWDG
Translated METAR for KWDG (1640 UTC 01 March 2015)
found at http://aviationweather.gov/adds/metars/
 
METAR text: KWDG 011555Z 35008KT 05SM BR BKN007 BKN020 OVC025 M01/M03 A3040
Conditions at: KWDG (ENID/WOODRING , OK, US) observed 1555 UTC 01 March 2015
Temperature: -1.0°C (30°F)
Dewpoint: -3.0°C (27°F) [RH = 86%]
Pressure (altimeter): 30.40 inches Hg (1029.5 mb)
Winds: from the N (350 degrees) at 9 MPH (8 knots; 4.2 m/s)
Visibility: 5 miles (8 km)
Ceiling: 700 feet AGL
Clouds: broken clouds at 700 feet AGL
broken clouds at 2000 feet AGL
overcast cloud deck at 2500 feet AGL
Weather: BR  (mist)
Translated TAF for KWDG

There is no translated TAF available for this airport

Find All Airport Services Find A Hotel Find A Rental Car Find A Golf Course Find A Restaurant $100 Hamburger



FBO's on the Field
FBO Company Facility Photos Services Transportation Aviation Fuel Prices: Prices include tax
Catering Weather Repair Courtesy Rental Type 100LL JetA JetA+ MOGAS 8087
 
Enid Woodring Regional Airport

This FBO has not yet been rated
FS:Phillips 66
Last Updated: Feb-19
Login to update fuel prices
SS:
Contact Enid Woodring Regional AirportMore FBO Information
 
Add another FBO Facility Photos Catering Weather Repair Courtesy Rental Type 100LL JetA JetA+ MOGAS 8087
Services Transportation Aviation Fuel Prices: Prices include tax


model-print
model-print
model-print
model-print